createdAt,value
2023-02-13T00:01:59.959Z,89.48
2023-02-13T00:04:02.632Z,89.10
2023-02-13T00:06:05.308Z,89.76
2023-02-13T00:08:07.926Z,89.72
2023-02-13T00:10:10.881Z,89.51
2023-02-13T00:12:13.447Z,89.57
2023-02-13T00:14:16.076Z,90.16
2023-02-13T00:16:18.826Z,90.50
2023-02-13T00:18:21.566Z,90.40
2023-02-13T00:20:24.413Z,90.50
2023-02-13T00:22:27.454Z,90.01
2023-02-13T00:24:29.982Z,90.58
2023-02-13T00:26:32.584Z,91.09
2023-02-13T00:28:35.455Z,91.15
2023-02-13T00:30:38.088Z,89.96
2023-02-13T00:32:40.634Z,89.63
2023-02-13T00:34:44.282Z,90.24
2023-02-13T00:36:46.888Z,89.68
2023-02-13T00:38:49.837Z,89.95
2023-02-13T00:40:52.489Z,89.99
2023-02-13T00:42:55.038Z,90.25
2023-02-13T00:44:57.649Z,90.32
2023-02-13T00:47:00.355Z,89.31
2023-02-13T00:49:03.131Z,90.16
2023-02-13T00:51:07.096Z,89.26
2023-02-13T00:53:09.720Z,89.32
2023-02-13T00:55:12.371Z,89.74
2023-02-13T00:57:15.029Z,89.91
2023-02-13T00:59:18.282Z,89.22
2023-02-13T01:01:20.968Z,89.51
2023-02-13T01:03:24.497Z,89.76
2023-02-13T01:05:28.710Z,89.51
2023-02-13T01:07:31.277Z,89.38
2023-02-13T01:09:34.009Z,89.30
2023-02-13T01:11:36.637Z,89.96
2023-02-13T01:13:39.383Z,90.03
2023-02-13T01:15:42.585Z,89.80
2023-02-13T01:17:45.331Z,90.17
2023-02-13T01:19:47.915Z,89.23
2023-02-13T01:21:50.723Z,89.58
2023-02-13T01:23:53.275Z,89.73
2023-02-13T01:25:55.995Z,89.43
2023-02-13T01:27:58.576Z,89.10
2023-02-13T01:30:01.336Z,88.72
2023-02-13T01:32:05.461Z,89.17
2023-02-13T01:34:08.102Z,88.89
2023-02-13T01:36:12.685Z,89.27
2023-02-13T01:38:15.232Z,88.88
2023-02-13T01:40:18.136Z,89.10
2023-02-13T01:42:39.220Z,89.07
2023-02-13T01:44:50.952Z,89.53
2023-02-13T01:46:53.626Z,89.27
2023-02-13T01:49:01.134Z,90.04
2023-02-13T01:51:10.576Z,89.62
2023-02-13T01:53:23.059Z,89.63
2023-02-13T01:55:27.996Z,89.54
2023-02-13T01:57:33.378Z,89.80
2023-02-13T01:59:45.076Z,89.75
2023-02-13T02:01:48.338Z,89.74
2023-02-13T02:04:07.932Z,89.75
2023-02-13T02:06:17.678Z,89.31
2023-02-13T02:08:21.020Z,89.81
2023-02-13T02:10:24.234Z,90.15
2023-02-13T02:12:34.526Z,89.09
2023-02-13T02:14:38.521Z,89.57
2023-02-13T02:16:41.097Z,89.18
2023-02-13T02:18:43.711Z,89.73
2023-02-13T02:21:10.432Z,88.83
2023-02-13T02:23:40.658Z,89.79
2023-02-13T02:26:01.500Z,89.62
2023-02-13T02:28:22.862Z,89.28
2023-02-13T02:31:02.992Z,88.85
2023-02-13T02:33:14.474Z,88.87
2023-02-13T02:35:41.556Z,89.39
2023-02-13T02:38:06.982Z,88.52
2023-02-13T02:40:25.534Z,89.11
2023-02-13T02:42:52.175Z,89.20
2023-02-13T02:44:57.521Z,88.70
2023-02-13T02:47:27.572Z,88.22
2023-02-13T02:49:54.549Z,87.90
2023-02-13T02:52:08.886Z,87.82
2023-02-13T02:54:41.382Z,88.47
2023-02-13T02:56:44.775Z,88.17
2023-02-13T02:59:27.980Z,88.49
2023-02-13T03:01:51.554Z,88.58
2023-02-13T03:04:23.941Z,87.95
2023-02-13T03:06:35.255Z,88.51
2023-02-13T03:08:58.299Z,88.54
2023-02-13T03:11:19.686Z,89.01
2023-02-13T03:13:47.121Z,88.48
2023-02-13T03:16:11.819Z,87.65
2023-02-13T03:18:32.731Z,88.00
2023-02-13T03:21:11.005Z,88.86
2023-02-13T03:23:16.643Z,89.09
2023-02-13T03:25:35.792Z,89.09
2023-02-13T03:28:09.452Z,88.38
2023-02-13T03:30:36.085Z,87.99
2023-02-13T03:33:05.027Z,87.33
2023-02-13T03:35:38.519Z,88.52
2023-02-13T03:37:57.115Z,87.82
2023-02-13T03:40:22.134Z,88.38
2023-02-13T03:42:33.468Z,88.27
2023-02-13T03:44:41.725Z,87.68
2023-02-13T03:46:48.532Z,87.90
2023-02-13T03:49:10.509Z,88.56
2023-02-13T03:51:19.883Z,87.47
2023-02-13T03:53:24.712Z,88.21
2023-02-13T03:56:00.367Z,88.73
2023-02-13T03:58:30.513Z,89.00
2023-02-13T04:00:46.757Z,88.35
2023-02-13T04:03:06.065Z,88.08
2023-02-13T04:05:16.659Z,88.39
2023-02-13T04:07:32.191Z,87.92
2023-02-13T04:09:39.343Z,87.95
2023-02-13T04:12:11.807Z,88.13
2023-02-13T04:14:29.195Z,88.01
2023-02-13T04:16:39.487Z,87.95
2023-02-13T04:18:43.451Z,87.40
2023-02-13T04:20:46.189Z,88.21
2023-02-13T04:22:48.946Z,88.64
2023-02-13T04:24:51.675Z,88.04
2023-02-13T04:26:55.963Z,88.49
2023-02-13T04:28:58.542Z,88.71
2023-02-13T04:31:01.626Z,88.32
2023-02-13T04:33:04.767Z,88.37
2023-02-13T04:35:07.570Z,88.25
2023-02-13T04:37:10.241Z,87.99
2023-02-13T04:39:12.979Z,88.04
2023-02-13T04:41:15.668Z,88.23
2023-02-13T04:43:18.373Z,87.67
2023-02-13T04:45:21.230Z,87.81
2023-02-13T04:47:23.969Z,87.61
2023-02-13T04:49:26.583Z,87.17
2023-02-13T04:51:29.372Z,87.36
2023-02-13T04:53:31.997Z,86.85
2023-02-13T04:55:35.124Z,87.36
2023-02-13T04:57:37.785Z,87.50
2023-02-13T04:59:40.481Z,87.79
2023-02-13T05:01:43.199Z,87.26
2023-02-13T05:03:46.054Z,87.63
2023-02-13T05:05:49.628Z,87.31
2023-02-13T05:07:52.338Z,87.83
2023-02-13T05:09:54.933Z,86.86
2023-02-13T05:11:57.745Z,87.03
2023-02-13T05:14:00.434Z,87.11
2023-02-13T05:16:03.414Z,86.41
2023-02-13T05:18:06.194Z,87.00
2023-02-13T05:20:09.330Z,86.60
2023-02-13T05:22:30.488Z,86.34
2023-02-13T05:24:33.063Z,86.06
2023-02-13T05:26:35.759Z,86.42
2023-02-13T05:28:57.243Z,85.79
2023-02-13T05:31:00.320Z,85.64
2023-02-13T05:33:03.300Z,85.08
2023-02-13T05:35:06.524Z,85.36
2023-02-13T05:37:09.234Z,85.39
2023-02-13T05:39:11.948Z,85.36
2023-02-13T05:41:14.592Z,85.85
2023-02-13T05:43:17.293Z,85.32
2023-02-13T05:45:19.929Z,84.99
2023-02-13T05:47:22.580Z,84.24
2023-02-13T05:49:25.177Z,84.25
2023-02-13T05:51:27.856Z,84.32
2023-02-13T05:53:30.628Z,84.75
2023-02-13T05:55:33.245Z,84.92
2023-02-13T05:57:35.811Z,83.69
2023-02-13T05:59:38.532Z,84.75
2023-02-13T06:01:41.544Z,84.19
2023-02-13T06:03:44.243Z,84.23
2023-02-13T06:05:47.086Z,84.36
2023-02-13T06:07:49.755Z,83.97
2023-02-13T06:09:52.709Z,84.23
2023-02-13T06:11:55.437Z,83.35
2023-02-13T06:13:58.173Z,83.19
2023-02-13T06:16:00.984Z,83.13
2023-02-13T06:18:03.725Z,83.58
2023-02-13T06:20:07.484Z,83.23
2023-02-13T06:22:10.145Z,83.26
2023-02-13T06:24:12.714Z,83.40
2023-02-13T06:26:15.601Z,82.45
2023-02-13T06:28:18.428Z,82.54
2023-02-13T06:30:21.316Z,82.51
2023-02-13T06:32:23.984Z,82.71
2023-02-13T06:34:26.597Z,82.24
2023-02-13T06:36:29.289Z,82.64
2023-02-13T06:38:32.341Z,82.93
2023-02-13T06:40:35.050Z,82.20
2023-02-13T06:42:37.676Z,81.53
2023-02-13T06:44:40.329Z,82.34
2023-02-13T06:46:43.087Z,83.53
2023-02-13T06:48:45.904Z,82.73
2023-02-13T06:50:48.529Z,81.82
2023-02-13T06:52:52.383Z,82.36
2023-02-13T06:54:54.979Z,81.52
2023-02-13T06:56:57.548Z,82.18
2023-02-13T06:59:00.561Z,82.14
2023-02-13T07:01:03.395Z,81.06
2023-02-13T07:03:07.117Z,81.46
2023-02-13T07:05:11.660Z,81.02
2023-02-13T07:07:14.478Z,80.77
2023-02-13T07:09:17.076Z,80.86
2023-02-13T07:11:20.668Z,80.71
2023-02-13T07:13:23.428Z,79.75
2023-02-13T07:15:26.237Z,79.49
2023-02-13T07:17:29.326Z,80.72
2023-02-13T07:19:33.502Z,79.84
2023-02-13T07:21:38.445Z,79.34
2023-02-13T07:23:41.854Z,79.41
2023-02-13T07:25:44.637Z,79.99
2023-02-13T07:27:47.558Z,78.76
2023-02-13T07:29:50.419Z,78.50
2023-02-13T07:31:53.197Z,78.40
2023-02-13T07:33:55.954Z,78.13
2023-02-13T07:35:58.756Z,76.54
2023-02-13T07:38:01.386Z,76.78
2023-02-13T07:40:06.558Z,76.32
2023-02-13T07:42:09.407Z,77.40
2023-02-13T07:44:12.216Z,76.52
2023-02-13T07:46:14.882Z,76.66
2023-02-13T07:48:18.720Z,75.48
2023-02-13T07:50:21.548Z,74.69
2023-02-13T07:52:25.595Z,75.49
2023-02-13T07:54:28.504Z,75.12
2023-02-13T07:56:31.320Z,75.42
2023-02-13T07:58:34.455Z,74.72
2023-02-13T08:00:38.526Z,75.58
2023-02-13T08:02:43.549Z,75.50
2023-02-13T08:04:49.368Z,74.74
2023-02-13T08:06:52.112Z,75.13
2023-02-13T08:09:17.280Z,74.71
2023-02-13T08:11:51.767Z,74.57
2023-02-13T08:13:54.508Z,73.65
2023-02-13T08:15:57.529Z,73.57
2023-02-13T08:18:00.411Z,73.17
2023-02-13T08:20:03.839Z,72.46
2023-02-13T08:22:07.271Z,72.76
2023-02-13T08:24:10.719Z,71.51
2023-02-13T08:26:13.478Z,71.44
2023-02-13T08:28:17.335Z,72.33
2023-02-13T08:30:20.763Z,70.77
2023-02-13T08:32:24.956Z,71.10
2023-02-13T08:34:27.845Z,71.49
2023-02-13T08:36:31.395Z,71.36
2023-02-13T08:38:34.600Z,71.84
2023-02-13T08:40:37.516Z,71.65
2023-02-13T08:42:40.281Z,71.82
2023-02-13T08:44:42.978Z,71.65
2023-02-13T08:46:45.632Z,70.83
2023-02-13T08:48:48.468Z,70.44
2023-02-13T08:50:51.149Z,71.49
2023-02-13T08:52:54.622Z,71.50
2023-02-13T08:54:58.632Z,70.69
2023-02-13T08:57:02.185Z,70.11
2023-02-13T08:59:04.926Z,69.87
2023-02-13T09:01:08.936Z,69.91
2023-02-13T09:03:11.847Z,70.08
2023-02-13T09:05:14.673Z,71.38
2023-02-13T09:07:17.317Z,70.28
2023-02-13T09:09:20.245Z,69.90
2023-02-13T09:11:23.720Z,70.31
2023-02-13T09:13:26.831Z,70.27
2023-02-13T09:15:30.162Z,69.87
2023-02-13T09:17:32.854Z,69.08
2023-02-13T09:19:35.553Z,68.88
2023-02-13T09:21:38.284Z,68.93
2023-02-13T09:23:41.821Z,69.25
2023-02-13T09:25:44.572Z,69.26
2023-02-13T09:27:47.285Z,69.37
2023-02-13T09:29:49.996Z,69.26
2023-02-13T09:31:53.079Z,68.96
2023-02-13T09:33:55.956Z,69.31
2023-02-13T09:35:58.830Z,69.20
2023-02-13T09:38:01.897Z,69.44
2023-02-13T09:40:04.723Z,69.41
2023-02-13T09:42:25.171Z,68.63
2023-02-13T09:44:43.981Z,69.10
2023-02-13T09:46:47.095Z,68.37
2023-02-13T09:48:54.188Z,68.59
2023-02-13T09:50:58.119Z,69.26
2023-02-13T09:53:02.009Z,68.96
2023-02-13T09:55:16.050Z,68.71
2023-02-13T09:57:33.938Z,68.42
2023-02-13T09:59:58.436Z,66.52
2023-02-13T10:02:14.875Z,67.81
2023-02-13T10:04:30.344Z,68.90
2023-02-13T10:06:50.215Z,68.14
2023-02-13T10:09:01.698Z,67.10
2023-02-13T10:11:28.587Z,66.23
2023-02-13T10:13:49.072Z,67.55
2023-02-13T10:16:16.945Z,64.45
2023-02-13T10:18:32.228Z,65.19
2023-02-13T10:20:44.142Z,66.06
2023-02-13T10:22:53.067Z,67.77
2023-02-13T10:25:03.124Z,67.90
2023-02-13T10:27:39.464Z,67.11
2023-02-13T10:30:04.543Z,67.97
2023-02-13T10:32:17.326Z,67.95
2023-02-13T10:34:25.581Z,68.20
2023-02-13T10:36:32.400Z,68.21
2023-02-13T10:38:40.678Z,67.59
2023-02-13T10:41:03.474Z,66.92
2023-02-13T10:43:10.915Z,67.65
2023-02-13T10:45:40.595Z,67.64
2023-02-13T10:48:08.085Z,68.06
2023-02-13T10:50:20.737Z,67.75
2023-02-13T10:52:43.910Z,67.99
2023-02-13T10:55:28.307Z,67.12
2023-02-13T10:57:37.495Z,68.36
2023-02-13T10:59:55.640Z,68.05
2023-02-13T11:02:13.934Z,68.01
2023-02-13T11:04:19.573Z,68.05
2023-02-13T11:06:22.582Z,68.56
2023-02-13T11:08:35.518Z,68.64
2023-02-13T11:10:40.456Z,67.67
2023-02-13T11:12:43.137Z,67.06
2023-02-13T11:14:57.969Z,66.51
2023-02-13T11:17:07.382Z,67.45
2023-02-13T11:19:53.779Z,68.33
2023-02-13T11:22:04.908Z,68.71
2023-02-13T11:24:22.728Z,69.26
2023-02-13T11:26:50.178Z,68.66
2023-02-13T11:29:02.432Z,69.06
2023-02-13T11:31:24.642Z,68.28
2023-02-13T11:33:28.374Z,69.70
2023-02-13T11:35:37.131Z,69.15
2023-02-13T11:37:40.872Z,69.39
2023-02-13T11:39:46.753Z,69.54
2023-02-13T11:41:53.033Z,69.34
2023-02-13T11:44:01.982Z,69.93
2023-02-13T11:46:09.086Z,70.43
2023-02-13T11:48:23.234Z,70.42
2023-02-13T11:50:46.496Z,70.92
2023-02-13T11:53:09.470Z,69.62
2023-02-13T11:55:32.454Z,71.12
2023-02-13T11:57:37.836Z,71.80
2023-02-13T11:59:43.985Z,71.34
2023-02-13T12:01:50.626Z,71.13
2023-02-13T12:04:07.535Z,70.70
2023-02-13T12:06:16.075Z,70.66
2023-02-13T12:08:18.935Z,72.16
2023-02-13T12:10:30.325Z,72.87
2023-02-13T12:12:41.598Z,72.57
2023-02-13T12:14:46.654Z,72.58
2023-02-13T12:17:02.668Z,73.97
2023-02-13T12:19:16.911Z,73.07
2023-02-13T12:21:28.700Z,72.78
2023-02-13T12:23:56.465Z,73.74
2023-02-13T12:26:22.825Z,73.34
2023-02-13T12:28:55.876Z,71.81
2023-02-13T12:31:06.046Z,73.36
2023-02-13T12:33:27.224Z,73.26
2023-02-13T12:35:32.882Z,73.88
2023-02-13T12:37:58.594Z,74.40
2023-02-13T12:40:29.337Z,75.29
2023-02-13T12:43:06.980Z,76.13
2023-02-13T12:45:26.130Z,74.89
2023-02-13T12:47:31.643Z,74.79
2023-02-13T12:49:53.028Z,75.14
2023-02-13T12:52:13.955Z,75.49
2023-02-13T12:54:37.469Z,76.36
2023-02-13T12:57:03.752Z,75.73
2023-02-13T12:59:30.218Z,75.98
2023-02-13T13:02:23.350Z,75.66
2023-02-13T13:04:29.059Z,75.92
2023-02-13T13:07:00.641Z,75.90
2023-02-13T13:09:31.916Z,76.90
2023-02-13T13:12:08.161Z,77.53
2023-02-13T13:14:47.451Z,77.89
2023-02-13T13:17:28.325Z,78.42
2023-02-13T13:19:58.976Z,79.32
2023-02-13T13:22:39.338Z,79.68
2023-02-13T13:25:05.029Z,80.05
2023-02-13T13:27:28.870Z,80.21
2023-02-13T13:29:46.888Z,80.90
2023-02-13T13:31:56.545Z,81.38
2023-02-13T13:34:08.702Z,82.02
2023-02-13T13:36:11.344Z,82.33
2023-02-13T13:38:32.122Z,82.67
2023-02-13T13:40:40.708Z,82.83
2023-02-13T13:43:27.450Z,83.17
2023-02-13T13:45:47.632Z,83.28
2023-02-13T13:48:27.659Z,84.02
2023-02-13T13:50:36.195Z,84.18
2023-02-13T13:52:38.905Z,84.33
2023-02-13T13:54:41.804Z,84.83
2023-02-13T13:56:53.088Z,84.49
2023-02-13T13:58:56.869Z,84.67
2023-02-13T14:01:19.216Z,85.28
2023-02-13T14:03:25.424Z,85.03
2023-02-13T14:05:31.221Z,85.87
2023-02-13T14:07:41.545Z,85.85
2023-02-13T14:09:44.660Z,86.23
2023-02-13T14:11:47.481Z,86.84
2023-02-13T14:13:50.628Z,86.61
2023-02-13T14:15:55.308Z,86.85
2023-02-13T14:18:01.660Z,87.12
2023-02-13T14:20:23.302Z,87.42
2023-02-13T14:22:35.609Z,87.49
2023-02-13T14:24:39.527Z,88.07
2023-02-13T14:26:42.528Z,88.01
2023-02-13T14:28:47.832Z,87.68
2023-02-13T14:30:55.099Z,88.87
2023-02-13T14:33:05.945Z,88.46
2023-02-13T14:35:14.433Z,88.86
2023-02-13T14:37:31.489Z,88.92
2023-02-13T14:39:36.317Z,88.70
2023-02-13T14:41:57.051Z,88.74
2023-02-13T14:43:59.998Z,89.34
2023-02-13T14:46:08.626Z,89.41
2023-02-13T14:48:15.911Z,89.03
2023-02-13T14:50:22.951Z,89.71
2023-02-13T14:52:29.381Z,89.74
2023-02-13T14:54:37.698Z,89.71
2023-02-13T14:56:40.441Z,90.05
2023-02-13T14:59:02.628Z,90.46
2023-02-13T15:01:22.463Z,91.00
2023-02-13T15:03:31.776Z,90.53
2023-02-13T15:05:36.125Z,91.16
2023-02-13T15:07:45.830Z,91.12
2023-02-13T15:09:56.629Z,91.32
2023-02-13T15:12:00.006Z,91.28
2023-02-13T15:14:36.898Z,91.56
2023-02-13T15:16:39.793Z,91.16
2023-02-13T15:18:52.644Z,91.10
2023-02-13T15:21:01.376Z,91.47
2023-02-13T15:23:06.928Z,91.93
2023-02-13T15:25:09.870Z,91.12
2023-02-13T15:27:23.188Z,91.50
2023-02-13T15:29:31.015Z,91.57
2023-02-13T15:31:35.089Z,91.83
2023-02-13T15:33:50.198Z,91.62
2023-02-13T15:35:58.482Z,92.25
2023-02-13T15:38:36.702Z,92.33
2023-02-13T15:40:42.004Z,92.77
2023-02-13T15:42:45.004Z,92.65
2023-02-13T15:44:50.197Z,92.04
2023-02-13T15:46:54.485Z,92.63
2023-02-13T15:49:10.688Z,92.95
2023-02-13T15:51:27.719Z,93.31
2023-02-13T15:53:30.680Z,92.94
2023-02-13T15:55:36.734Z,92.58
2023-02-13T15:57:40.640Z,92.66
2023-02-13T15:59:43.701Z,92.35
2023-02-13T16:01:47.147Z,92.50
2023-02-13T16:03:56.123Z,92.77
2023-02-13T16:05:59.052Z,92.75
2023-02-13T16:08:02.760Z,91.88
2023-02-13T16:10:26.226Z,92.43
2023-02-13T16:12:29.145Z,91.90
2023-02-13T16:14:37.830Z,91.99
2023-02-13T16:16:51.584Z,92.28
2023-02-13T16:18:54.745Z,92.61
2023-02-13T16:20:57.790Z,92.32
2023-02-13T16:23:32.520Z,92.13
2023-02-13T16:25:38.959Z,92.49
2023-02-13T16:27:57.559Z,92.47
2023-02-13T16:30:04.092Z,91.74
2023-02-13T16:32:18.416Z,92.54
2023-02-13T16:34:29.879Z,92.15
2023-02-13T16:36:34.771Z,92.74
2023-02-13T16:38:47.665Z,92.37
2023-02-13T16:40:50.681Z,92.38
2023-02-13T16:42:53.337Z,92.14
2023-02-13T16:45:21.145Z,92.39
2023-02-13T16:47:25.385Z,92.61
2023-02-13T16:49:30.843Z,92.85
2023-02-13T16:51:49.536Z,92.51
2023-02-13T16:53:58.901Z,92.14
2023-02-13T16:56:06.354Z,92.56
2023-02-13T16:58:15.616Z,92.99
2023-02-13T17:00:24.527Z,92.56
2023-02-13T17:02:40.998Z,92.58
2023-02-13T17:05:03.379Z,92.35
2023-02-13T17:07:14.457Z,92.46
2023-02-13T17:09:17.124Z,92.58
2023-02-13T17:11:20.165Z,92.75
2023-02-13T17:13:25.228Z,92.76
2023-02-13T17:15:31.273Z,93.48
2023-02-13T17:17:33.936Z,92.96
2023-02-13T17:19:36.664Z,93.41
2023-02-13T17:21:40.257Z,92.81
2023-02-13T17:23:43.022Z,93.25
2023-02-13T17:25:49.751Z,93.13
2023-02-13T17:27:55.219Z,93.40
2023-02-13T17:29:58.135Z,94.08
2023-02-13T17:32:01.205Z,94.33
2023-02-13T17:34:05.613Z,94.83
2023-02-13T17:36:12.004Z,94.45
2023-02-13T17:38:15.219Z,94.22
2023-02-13T17:40:21.464Z,94.04
2023-02-13T17:42:27.192Z,94.06
2023-02-13T17:44:29.891Z,94.65
2023-02-13T17:46:32.570Z,94.20
2023-02-13T17:48:35.244Z,94.42
2023-02-13T17:50:38.732Z,94.01
2023-02-13T17:52:41.989Z,93.89
2023-02-13T17:54:45.029Z,93.81
2023-02-13T17:56:47.638Z,94.17
2023-02-13T17:58:50.363Z,93.68
2023-02-13T18:00:53.282Z,94.37
2023-02-13T18:02:57.110Z,93.76
2023-02-13T18:05:00.226Z,94.13
2023-02-13T18:07:02.902Z,93.80
2023-02-13T18:09:05.617Z,93.33
2023-02-13T18:11:12.066Z,94.00
2023-02-13T18:13:14.925Z,94.12
2023-02-13T18:15:17.893Z,94.17
2023-02-13T18:17:21.268Z,93.73
2023-02-13T18:19:24.031Z,93.80
2023-02-13T18:21:26.796Z,93.55
2023-02-13T18:23:29.380Z,93.75
2023-02-13T18:25:31.989Z,93.50
2023-02-13T18:27:34.698Z,93.78
2023-02-13T18:29:38.309Z,93.93
2023-02-13T18:31:41.112Z,94.16
2023-02-13T18:33:43.940Z,94.26
2023-02-13T18:35:46.793Z,94.19
2023-02-13T18:37:49.592Z,94.58
2023-02-13T18:39:52.283Z,94.63
2023-02-13T18:41:55.004Z,94.74
2023-02-13T18:43:58.692Z,94.77
2023-02-13T18:46:01.684Z,94.51
2023-02-13T18:48:04.479Z,94.62
2023-02-13T18:50:08.487Z,94.95
2023-02-13T18:52:11.240Z,94.50
2023-02-13T18:54:13.869Z,94.55
2023-02-13T18:56:16.624Z,94.59
2023-02-13T18:58:19.453Z,94.60
2023-02-13T19:00:23.695Z,94.45
2023-02-13T19:02:26.439Z,94.19
2023-02-13T19:04:29.153Z,94.50
2023-02-13T19:06:32.954Z,94.37
2023-02-13T19:08:36.088Z,94.52
2023-02-13T19:10:38.914Z,94.09
2023-02-13T19:12:42.082Z,94.10
2023-02-13T19:14:44.736Z,94.25
2023-02-13T19:16:47.479Z,94.36
2023-02-13T19:18:53.731Z,93.01
2023-02-13T19:21:00.781Z,92.94
2023-02-13T19:23:03.507Z,93.69
2023-02-13T19:25:06.538Z,93.61
2023-02-13T19:27:09.188Z,93.38
2023-02-13T19:29:14.836Z,93.47
2023-02-13T19:31:20.642Z,93.63
2023-02-13T19:33:23.387Z,94.31
2023-02-13T19:35:26.184Z,94.31
2023-02-13T19:37:35.707Z,93.75
2023-02-13T19:39:44.833Z,94.47
2023-02-13T19:41:47.486Z,94.20
2023-02-13T19:43:53.527Z,94.45
2023-02-13T19:45:56.301Z,94.05
2023-02-13T19:47:58.957Z,94.27
2023-02-13T19:50:01.629Z,94.03
2023-02-13T19:52:06.165Z,94.54
2023-02-13T19:54:10.799Z,94.40
2023-02-13T19:56:14.427Z,94.59
2023-02-13T19:58:17.257Z,94.78
2023-02-13T20:00:20.578Z,94.66
2023-02-13T20:02:23.572Z,94.86
2023-02-13T20:04:26.224Z,94.74
2023-02-13T20:06:38.622Z,95.14
2023-02-13T20:08:43.090Z,94.70
2023-02-13T20:10:46.494Z,95.12
2023-02-13T20:12:55.255Z,95.34
2023-02-13T20:14:57.883Z,95.54
2023-02-13T20:17:00.694Z,95.23
2023-02-13T20:19:07.874Z,95.19
2023-02-13T20:21:14.036Z,95.48
2023-02-13T20:23:18.681Z,95.28
2023-02-13T20:25:22.356Z,95.37
2023-02-13T20:27:24.980Z,95.04
2023-02-13T20:29:27.711Z,94.96
2023-02-13T20:31:31.262Z,95.76
2023-02-13T20:33:36.656Z,95.52
2023-02-13T20:35:39.351Z,95.26
2023-02-13T20:37:42.926Z,95.22
2023-02-13T20:39:45.546Z,95.92
2023-02-13T20:41:50.590Z,95.89
2023-02-13T20:43:56.796Z,95.91
2023-02-13T20:45:59.534Z,95.92
2023-02-13T20:48:02.227Z,95.72
2023-02-13T20:50:05.268Z,95.68
2023-02-13T20:52:07.984Z,96.48
2023-02-13T20:54:10.973Z,96.38
2023-02-13T20:56:19.257Z,96.80
2023-02-13T20:58:22.010Z,96.90
2023-02-13T21:00:24.800Z,97.14
2023-02-13T21:02:27.619Z,96.83
2023-02-13T21:04:32.747Z,96.98
2023-02-13T21:06:37.167Z,96.91
2023-02-13T21:08:42.707Z,97.17
2023-02-13T21:10:45.391Z,97.40
2023-02-13T21:12:48.063Z,97.12
2023-02-13T21:14:54.004Z,96.94
2023-02-13T21:16:56.926Z,97.07
2023-02-13T21:19:01.855Z,97.14
2023-02-13T21:21:05.917Z,97.45
2023-02-13T21:23:08.610Z,97.57
2023-02-13T21:25:11.298Z,97.54
2023-02-13T21:27:15.112Z,97.83
2023-02-13T21:29:18.123Z,97.42
2023-02-13T21:31:25.676Z,98.06
2023-02-13T21:33:28.585Z,97.81
2023-02-13T21:35:31.293Z,98.00
2023-02-13T21:37:34.023Z,97.74
2023-02-13T21:39:37.443Z,98.45
2023-02-13T21:41:45.275Z,98.27
2023-02-13T21:43:49.590Z,98.31
2023-02-13T21:45:52.262Z,98.22
2023-02-13T21:47:56.710Z,98.56
2023-02-13T21:49:59.308Z,98.63
2023-02-13T21:52:02.004Z,98.55
2023-02-13T21:54:06.128Z,98.83
2023-02-13T21:56:12.647Z,98.96
2023-02-13T21:58:15.372Z,98.69
2023-02-13T22:00:18.180Z,99.02
2023-02-13T22:02:20.927Z,98.81
2023-02-13T22:04:23.855Z,99.01
2023-02-13T22:06:27.404Z,99.13
2023-02-13T22:08:30.060Z,98.96
2023-02-13T22:10:32.666Z,98.91
2023-02-13T22:12:35.308Z,98.54
2023-02-13T22:14:38.199Z,98.49
2023-02-13T22:16:42.668Z,98.73
2023-02-13T22:18:45.965Z,98.29
2023-02-13T22:20:48.638Z,98.53
2023-02-13T22:22:51.378Z,98.33
2023-02-13T22:24:53.980Z,98.68
2023-02-13T22:26:56.663Z,98.38
2023-02-13T22:29:01.585Z,98.22
2023-02-13T22:31:09.357Z,98.09
2023-02-13T22:33:12.205Z,98.29
2023-02-13T22:35:14.947Z,97.32
2023-02-13T22:37:17.663Z,97.76
2023-02-13T22:39:20.292Z,97.86
2023-02-13T22:41:27.493Z,97.95
2023-02-13T22:43:30.092Z,97.67
2023-02-13T22:45:39.044Z,97.76
2023-02-13T22:47:41.681Z,97.07
2023-02-13T22:49:44.304Z,97.07
2023-02-13T22:51:46.920Z,96.99
2023-02-13T22:53:52.307Z,96.97
2023-02-13T22:55:54.919Z,96.88
2023-02-13T22:57:58.556Z,97.22
2023-02-13T23:00:01.130Z,96.88
2023-02-13T23:02:06.971Z,97.18
2023-02-13T23:04:09.734Z,97.65
2023-02-13T23:06:14.358Z,97.49
2023-02-13T23:08:17.421Z,97.74
2023-02-13T23:10:20.218Z,98.15
2023-02-13T23:12:39.282Z,98.11
2023-02-13T23:14:41.944Z,98.81
2023-02-13T23:17:03.244Z,99.08
2023-02-13T23:19:05.882Z,98.88
2023-02-13T23:21:08.688Z,98.83
2023-02-13T23:23:11.693Z,99.04
2023-02-13T23:25:15.279Z,98.60
2023-02-13T23:27:18.029Z,98.90
2023-02-13T23:29:20.852Z,98.74
2023-02-13T23:31:23.589Z,98.45
2023-02-13T23:33:26.424Z,98.45
2023-02-13T23:35:29.193Z,98.75
2023-02-13T23:37:31.862Z,98.63
2023-02-13T23:39:34.452Z,98.00
2023-02-13T23:41:37.073Z,97.99
2023-02-13T23:43:39.728Z,97.87
2023-02-13T23:45:42.412Z,97.89
2023-02-13T23:47:44.990Z,97.31
2023-02-13T23:49:47.703Z,97.09
2023-02-13T23:51:50.292Z,97.63
2023-02-13T23:53:56.292Z,97.31
2023-02-13T23:55:59.097Z,97.51
2023-02-13T23:58:01.886Z,97.28
